Antioch, Tennessee
Current Conditions -  °F | °C
As of 1:53 PM on Sunday 21 Dec 2014 (Local Time) from KBNA Reporting Station
Scattered Clouds Scattered Clouds  
Wind Chill: 53°   Ceiling: Unl
Heat Index: 53°   Visibility: 10mi
Dew Point: 31°   Wind: 6mph
Humidity: 43%   Direction: 70°ENE
Pressure: 30.09"   Gusts: NA
Location:  36.06°N, 86.67°W
Report Text: KBNA 211953Z 07005KT 10SM FEW050 SCT250 12/M01 A3009 RMK AO2 SLP192 T01171006
Loading
Personal Weather Stations






























Interactive Weather Map New forecast layout! Learn more

10-Day Weather Forecast

Advertisements
Track Severe Weather on mobile